Oughtibridge, United Kingdom
Current Conditions -  °F | °C
As of 5:20 PM on Sunday 21 Dec 2014 (Local Time) from EGCN Reporting Station
Clear Clear  
Wind Chill: 54°   Ceiling: Unl
Heat Index: 54°   Visibility: 6mi
Dew Point: 46°   Wind: 21mph
Humidity: 77%   Direction: 200°SSW
Pressure: 30"   Gusts: NA
Location:  53.44°N, 1.54°W
Report Text: EGCN 211720Z 20018KT CAVOK 12/08 Q1016
Loading
Personal Weather Stations






























Interactive Weather Map New forecast layout! Learn more

10-Day Weather Forecast

Advertisements
Track Severe Weather on mobile